sensor_id;sensor_type;location;lat;lon;timestamp;pressure;altitude;pressure_sealevel;temperature;humidity
60267;BME280;46125;61.360;-149.532;2022-11-15T00:00:56;100706.58;;;6.10;44.30
60267;BME280;46125;61.360;-149.532;2022-11-15T00:03:26;100711.76;;;6.24;44.59
60267;BME280;46125;61.360;-149.532;2022-11-15T00:05:55;100719.01;;;6.05;44.62
60267;BME280;46125;61.360;-149.532;2022-11-15T00:08:30;100720.14;;;6.27;44.79
60267;BME280;46125;61.360;-149.532;2022-11-15T00:11:00;100724.84;;;6.19;45.08
60267;BME280;46125;61.360;-149.532;2022-11-15T00:13:29;100729.10;;;6.12;45.34
60267;BME280;46125;61.360;-149.532;2022-11-15T00:15:59;100733.72;;;6.16;45.44
60267;BME280;46125;61.360;-149.532;2022-11-15T00:18:28;100738.23;;;6.38;45.69
60267;BME280;46125;61.360;-149.532;2022-11-15T00:21:04;100738.97;;;6.08;45.72
60267;BME280;46125;61.360;-149.532;2022-11-15T00:23:34;100745.61;;;6.26;45.94
60267;BME280;46125;61.360;-149.532;2022-11-15T00:26:03;100749.11;;;6.13;46.18
60267;BME280;46125;61.360;-149.532;2022-11-15T00:28:31;100753.76;;;6.13;46.14
60267;BME280;46125;61.360;-149.532;2022-11-15T00:31:02;100759.17;;;5.80;46.18
60267;BME280;46125;61.360;-149.532;2022-11-15T00:33:31;100763.14;;;5.99;46.24
60267;BME280;46125;61.360;-149.532;2022-11-15T00:36:01;100767.94;;;5.68;46.14
60267;BME280;46125;61.360;-149.532;2022-11-15T00:38:32;100775.34;;;5.84;46.24
60267;BME280;46125;61.360;-149.532;2022-11-15T00:41:02;100777.87;;;5.73;46.24
60267;BME280;46125;61.360;-149.532;2022-11-15T00:43:31;100782.24;;;5.64;46.26
60267;BME280;46125;61.360;-149.532;2022-11-15T00:45:59;100786.70;;;5.58;46.13
60267;BME280;46125;61.360;-149.532;2022-11-15T00:48:28;100791.28;;;5.98;46.21
60267;BME280;46125;61.360;-149.532;2022-11-15T00:50:57;100796.96;;;5.70;46.18
60267;BME280;46125;61.360;-149.532;2022-11-15T00:53:25;100798.99;;;5.39;46.21
60267;BME280;46125;61.360;-149.532;2022-11-15T00:55:54;100802.27;;;5.31;46.19
60267;BME280;46125;61.360;-149.532;2022-11-15T00:58:23;100805.75;;;5.43;46.14
60267;BME280;46125;61.360;-149.532;2022-11-15T01:00:52;100807.86;;;5.13;46.08
60267;BME280;46125;61.360;-149.532;2022-11-15T01:03:20;100805.50;;;5.22;46.14
60267;BME280;46125;61.360;-149.532;2022-11-15T01:05:49;100805.84;;;4.78;46.91
60267;BME280;46125;61.360;-149.532;2022-11-15T01:08:17;100805.65;;;4.84;46.94
60267;BME280;46125;61.360;-149.532;2022-11-15T01:10:46;100809.09;;;4.89;46.71
60267;BME280;46125;61.360;-149.532;2022-11-15T01:13:14;100806.37;;;4.87;46.62
60267;BME280;46125;61.360;-149.532;2022-11-15T01:15:43;100806.58;;;4.82;46.49
60267;BME280;46125;61.360;-149.532;2022-11-15T01:18:12;100811.68;;;4.50;46.45
60267;BME280;46125;61.360;-149.532;2022-11-15T01:20:41;100816.42;;;4.66;46.53
60267;BME280;46125;61.360;-149.532;2022-11-15T01:23:10;100825.64;;;4.81;46.60
60267;BME280;46125;61.360;-149.532;2022-11-15T01:25:38;100829.22;;;4.49;46.80
60267;BME280;46125;61.360;-149.532;2022-11-15T01:28:07;100832.96;;;4.56;46.45
60267;BME280;46125;61.360;-149.532;2022-11-15T01:30:37;100837.42;;;4.32;46.34
60267;BME280;46125;61.360;-149.532;2022-11-15T01:33:05;100840.65;;;4.40;45.95
60267;BME280;46125;61.360;-149.532;2022-11-15T01:35:34;100845.82;;;4.53;45.73
60267;BME280;46125;61.360;-149.532;2022-11-15T01:38:06;100851.70;;;4.50;45.71
60267;BME280;46125;61.360;-149.532;2022-11-15T01:40:35;100857.99;;;4.51;45.72
60267;BME280;46125;61.360;-149.532;2022-11-15T01:43:20;100863.13;;;4.42;45.83
60267;BME280;46125;61.360;-149.532;2022-11-15T01:45:52;100868.57;;;4.57;45.93
60267;BME280;46125;61.360;-149.532;2022-11-15T01:48:28;100873.75;;;4.47;45.97
60267;BME280;46125;61.360;-149.532;2022-11-15T01:50:59;100881.17;;;4.30;46.71
60267;BME280;46125;61.360;-149.532;2022-11-15T01:53:30;100884.38;;;4.21;46.84
60267;BME280;46125;61.360;-149.532;2022-11-15T01:56:03;100885.45;;;4.19;46.89
60267;BME280;46125;61.360;-149.532;2022-11-15T01:58:33;100890.76;;;4.13;47.06
60267;BME280;46125;61.360;-149.532;2022-11-15T02:01:02;100897.86;;;3.86;47.25
60267;BME280;46125;61.360;-149.532;2022-11-15T02:03:36;100903.31;;;4.06;47.40
60267;BME280;46125;61.360;-149.532;2022-11-15T02:06:08;100900.68;;;4.05;47.40
60267;BME280;46125;61.360;-149.532;2022-11-15T02:08:37;100905.97;;;4.02;47.43
60267;BME280;46125;61.360;-149.532;2022-11-15T02:11:08;100907.95;;;3.71;47.47
60267;BME280;46125;61.360;-149.532;2022-11-15T02:13:37;100911.25;;;3.95;47.29
60267;BME280;46125;61.360;-149.532;2022-11-15T02:16:13;100916.28;;;3.98;47.26
60267;BME280;46125;61.360;-149.532;2022-11-15T02:18:48;100920.43;;;3.88;47.17
60267;BME280;46125;61.360;-149.532;2022-11-15T02:21:26;100926.75;;;1.77;53.53
60267;BME280;46125;61.360;-149.532;2022-11-15T02:28:06;100941.18;;;3.60;49.66
60267;BME280;46125;61.360;-149.532;2022-11-15T02:30:43;100950.97;;;3.62;48.15
60267;BME280;46125;61.360;-149.532;2022-11-15T02:33:25;100953.83;;;3.92;47.78
60267;BME280;46125;61.360;-149.532;2022-11-15T02:36:00;100956.66;;;3.88;47.88
60267;BME280;46125;61.360;-149.532;2022-11-15T02:38:34;100955.84;;;3.36;48.38
60267;BME280;46125;61.360;-149.532;2022-11-15T02:41:10;100961.20;;;3.95;47.72
60267;BME280;46125;61.360;-149.532;2022-11-15T02:43:45;100967.59;;;3.99;47.46
60267;BME280;46125;61.360;-149.532;2022-11-15T02:46:22;100970.30;;;3.41;47.59
60267;BME280;46125;61.360;-149.532;2022-11-15T02:48:51;100974.50;;;3.75;47.80
60267;BME280;46125;61.360;-149.532;2022-11-15T02:51:20;100977.96;;;3.50;47.76
60267;BME280;46125;61.360;-149.532;2022-11-15T02:53:49;100984.16;;;3.68;47.93
60267;BME280;46125;61.360;-149.532;2022-11-15T02:56:18;100986.66;;;3.78;47.62
60267;BME280;46125;61.360;-149.532;2022-11-15T02:59:00;100992.61;;;3.75;47.59
60267;BME280;46125;61.360;-149.532;2022-11-15T03:01:40;100999.08;;;3.75;47.49
60267;BME280;46125;61.360;-149.532;2022-11-15T03:04:19;101004.20;;;3.84;47.17
60267;BME280;46125;61.360;-149.532;2022-11-15T03:06:55;101009.78;;;3.88;46.81
60267;BME280;46125;61.360;-149.532;2022-11-15T03:09:31;101015.41;;;3.88;46.67
60267;BME280;46125;61.360;-149.532;2022-11-15T03:12:08;101022.03;;;3.64;46.73
60267;BME280;46125;61.360;-149.532;2022-11-15T03:14:46;101026.14;;;3.84;46.70
60267;BME280;46125;61.360;-149.532;2022-11-15T03:17:23;101033.10;;;3.84;46.73
60267;BME280;46125;61.360;-149.532;2022-11-15T03:19:54;101038.79;;;2.24;49.56
60267;BME280;46125;61.360;-149.532;2022-11-15T03:22:27;101042.69;;;2.39;51.04
60267;BME280;46125;61.360;-149.532;2022-11-15T03:25:00;101048.57;;;1.86;54.65
60267;BME280;46125;61.360;-149.532;2022-11-15T03:27:34;101057.50;;;1.39;57.36
60267;BME280;46125;61.360;-149.532;2022-11-15T03:30:07;101062.36;;;0.99;57.80
60267;BME280;46125;61.360;-149.532;2022-11-15T03:32:38;101066.35;;;1.26;57.65
60267;BME280;46125;61.360;-149.532;2022-11-15T03:35:12;101072.40;;;1.28;57.62
60267;BME280;46125;61.360;-149.532;2022-11-15T03:37:47;101075.04;;;1.37;56.53
60267;BME280;46125;61.360;-149.532;2022-11-15T03:40:17;101080.84;;;1.56;55.87
60267;BME280;46125;61.360;-149.532;2022-11-15T03:42:51;101084.55;;;1.67;55.40
60267;BME280;46125;61.360;-149.532;2022-11-15T03:45:28;101090.47;;;1.41;56.38
60267;BME280;46125;61.360;-149.532;2022-11-15T03:48:02;101101.53;;;0.94;57.51
60267;BME280;46125;61.360;-149.532;2022-11-15T03:50:33;101104.31;;;1.12;56.16
60267;BME280;46125;61.360;-149.532;2022-11-15T03:53:01;101106.86;;;1.36;55.88
60267;BME280;46125;61.360;-149.532;2022-11-15T03:55:32;101111.19;;;1.67;54.43
60267;BME280;46125;61.360;-149.532;2022-11-15T03:58:02;101111.54;;;2.37;52.72
60267;BME280;46125;61.360;-149.532;2022-11-15T04:00:31;101113.18;;;2.54;51.53
60267;BME280;46125;61.360;-149.532;2022-11-15T04:02:59;101115.83;;;2.69;50.79
60267;BME280;46125;61.360;-149.532;2022-11-15T04:05:28;101120.91;;;2.95;50.14
60267;BME280;46125;61.360;-149.532;2022-11-15T04:07:56;101124.48;;;2.28;51.25
60267;BME280;46125;61.360;-149.532;2022-11-15T04:10:25;101131.31;;;2.28;50.95
60267;BME280;46125;61.360;-149.532;2022-11-15T04:12:54;101132.85;;;2.45;50.55
60267;BME280;46125;61.360;-149.532;2022-11-15T04:15:23;101138.91;;;2.19;50.45
60267;BME280;46125;61.360;-149.532;2022-11-15T04:17:54;101144.27;;;2.78;49.71
60267;BME280;46125;61.360;-149.532;2022-11-15T04:20:25;101149.31;;;2.64;48.95
60267;BME280;46125;61.360;-149.532;2022-11-15T04:22:54;101152.67;;;3.21;48.17
60267;BME280;46125;61.360;-149.532;2022-11-15T04:25:23;101152.42;;;3.06;47.61
60267;BME280;46125;61.360;-149.532;2022-11-15T04:27:51;101154.63;;;3.40;47.92
60267;BME280;46125;61.360;-149.532;2022-11-15T04:30:25;101152.17;;;2.74;48.18
60267;BME280;46125;61.360;-149.532;2022-11-15T04:32:54;101152.01;;;2.79;47.92
60267;BME280;46125;61.360;-149.532;2022-11-15T04:35:22;101152.21;;;2.94;48.66
60267;BME280;46125;61.360;-149.532;2022-11-15T04:37:51;101151.64;;;2.83;47.95
60267;BME280;46125;61.360;-149.532;2022-11-15T04:40:20;101153.45;;;2.93;47.76
60267;BME280;46125;61.360;-149.532;2022-11-15T04:42:48;101155.27;;;2.98;47.57
60267;BME280;46125;61.360;-149.532;2022-11-15T04:45:17;101155.45;;;3.07;47.26
60267;BME280;46125;61.360;-149.532;2022-11-15T04:47:46;101158.12;;;3.05;47.24
60267;BME280;46125;61.360;-149.532;2022-11-15T04:50:15;101159.73;;;3.31;47.26
60267;BME280;46125;61.360;-149.532;2022-11-15T04:52:51;101164.77;;;3.34;47.30
60267;BME280;46125;61.360;-149.532;2022-11-15T04:55:20;101171.63;;;3.02;47.31
60267;BME280;46125;61.360;-149.532;2022-11-15T04:57:58;101174.54;;;2.93;47.31
60267;BME280;46125;61.360;-149.532;2022-11-15T05:00:28;101182.45;;;3.21;47.73
60267;BME280;46125;61.360;-149.532;2022-11-15T05:02:57;101186.02;;;2.91;48.10
60267;BME280;46125;61.360;-149.532;2022-11-15T05:05:25;101190.03;;;2.41;48.74
60267;BME280;46125;61.360;-149.532;2022-11-15T05:07:54;101188.95;;;2.34;48.74
60267;BME280;46125;61.360;-149.532;2022-11-15T05:10:22;101190.83;;;2.68;48.46
60267;BME280;46125;61.360;-149.532;2022-11-15T05:12:51;101196.69;;;2.29;48.26
60267;BME280;46125;61.360;-149.532;2022-11-15T05:15:19;101203.91;;;2.78;48.29
60267;BME280;46125;61.360;-149.532;2022-11-15T05:17:48;101209.10;;;2.73;48.29
60267;BME280;46125;61.360;-149.532;2022-11-15T05:20:17;101213.03;;;2.53;48.84
60267;BME280;46125;61.360;-149.532;2022-11-15T05:22:45;101224.21;;;1.61;51.07
60267;BME280;46125;61.360;-149.532;2022-11-15T05:25:14;101223.48;;;0.57;53.56
60267;BME280;46125;61.360;-149.532;2022-11-15T05:27:42;101225.75;;;1.83;50.62
60267;BME280;46125;61.360;-149.532;2022-11-15T05:30:11;101228.70;;;2.14;49.64
60267;BME280;46125;61.360;-149.532;2022-11-15T05:32:40;101237.47;;;1.71;50.29
60267;BME280;46125;61.360;-149.532;2022-11-15T05:35:15;101242.91;;;1.80;50.25
60267;BME280;46125;61.360;-149.532;2022-11-15T05:37:47;101243.84;;;2.18;50.28
60267;BME280;46125;61.360;-149.532;2022-11-15T05:40:18;101249.90;;;1.29;51.94
60267;BME280;46125;61.360;-149.532;2022-11-15T05:42:47;101252.22;;;1.96;50.99
60267;BME280;46125;61.360;-149.532;2022-11-15T05:45:16;101253.51;;;1.20;51.16
60267;BME280;46125;61.360;-149.532;2022-11-15T05:47:46;101257.23;;;1.43;51.50
60267;BME280;46125;61.360;-149.532;2022-11-15T05:50:17;101259.73;;;1.30;52.08
60267;BME280;46125;61.360;-149.532;2022-11-15T05:52:47;101265.51;;;1.89;50.44
60267;BME280;46125;61.360;-149.532;2022-11-15T05:55:16;101273.64;;;1.93;49.94
60267;BME280;46125;61.360;-149.532;2022-11-15T05:57:45;101274.39;;;1.39;52.05
60267;BME280;46125;61.360;-149.532;2022-11-15T06:00:15;101285.23;;;1.88;50.45
60267;BME280;46125;61.360;-149.532;2022-11-15T06:02:45;101293.89;;;1.64;50.34
60267;BME280;46125;61.360;-149.532;2022-11-15T06:05:19;101291.29;;;1.40;50.81
60267;BME280;46125;61.360;-149.532;2022-11-15T06:07:48;101292.88;;;1.67;50.13
60267;BME280;46125;61.360;-149.532;2022-11-15T06:10:17;101293.31;;;1.61;50.03
60267;BME280;46125;61.360;-149.532;2022-11-15T06:12:47;101294.80;;;0.14;54.64
60267;BME280;46125;61.360;-149.532;2022-11-15T06:15:23;101298.31;;;1.57;51.56
60267;BME280;46125;61.360;-149.532;2022-11-15T06:17:52;101303.87;;;0.71;52.67
60267;BME280;46125;61.360;-149.532;2022-11-15T06:20:21;101307.60;;;-1.30;58.47
60267;BME280;46125;61.360;-149.532;2022-11-15T06:22:49;101310.57;;;0.72;54.36
60267;BME280;46125;61.360;-149.532;2022-11-15T06:25:18;101319.66;;;0.99;52.66
60267;BME280;46125;61.360;-149.532;2022-11-15T06:27:52;101325.24;;;1.55;51.89
60267;BME280;46125;61.360;-149.532;2022-11-15T06:30:21;101323.94;;;1.46;51.41
60267;BME280;46125;61.360;-149.532;2022-11-15T06:32:50;101326.01;;;1.48;50.94
60267;BME280;46125;61.360;-149.532;2022-11-15T06:35:19;101329.39;;;1.85;50.54
60267;BME280;46125;61.360;-149.532;2022-11-15T06:37:48;101335.03;;;1.91;50.32
60267;BME280;46125;61.360;-149.532;2022-11-15T06:40:18;101332.64;;;1.72;50.10
60267;BME280;46125;61.360;-149.532;2022-11-15T06:42:47;101334.90;;;1.94;50.22
60267;BME280;46125;61.360;-149.532;2022-11-15T06:45:16;101335.95;;;1.80;50.05
60267;BME280;46125;61.360;-149.532;2022-11-15T06:47:47;101340.23;;;1.84;49.86
60267;BME280;46125;61.360;-149.532;2022-11-15T06:50:16;101339.66;;;1.86;49.72
60267;BME280;46125;61.360;-149.532;2022-11-15T06:52:46;101337.92;;;1.69;49.59
60267;BME280;46125;61.360;-149.532;2022-11-15T06:55:14;101342.62;;;2.20;49.46
60267;BME280;46125;61.360;-149.532;2022-11-15T06:57:48;101348.84;;;1.98;49.36
60267;BME280;46125;61.360;-149.532;2022-11-15T07:00:18;101353.18;;;1.13;51.53
60267;BME280;46125;61.360;-149.532;2022-11-15T07:02:47;101358.37;;;1.01;51.67
60267;BME280;46125;61.360;-149.532;2022-11-15T07:05:16;101367.36;;;0.63;53.22
60267;BME280;46125;61.360;-149.532;2022-11-15T07:07:52;101373.37;;;1.53;51.36
60267;BME280;46125;61.360;-149.532;2022-11-15T07:10:21;101381.93;;;1.71;50.64
60267;BME280;46125;61.360;-149.532;2022-11-15T07:12:50;101385.55;;;1.53;50.61
60267;BME280;46125;61.360;-149.532;2022-11-15T07:15:19;101390.10;;;-0.91;55.43
60267;BME280;46125;61.360;-149.532;2022-11-15T07:17:49;101395.04;;;0.89;52.36
60267;BME280;46125;61.360;-149.532;2022-11-15T07:20:17;101396.14;;;1.37;50.79
60267;BME280;46125;61.360;-149.532;2022-11-15T07:22:46;101398.65;;;1.31;50.20
60267;BME280;46125;61.360;-149.532;2022-11-15T07:25:15;101400.94;;;1.35;49.87
60267;BME280;46125;61.360;-149.532;2022-11-15T07:27:43;101407.64;;;1.66;49.63
60267;BME280;46125;61.360;-149.532;2022-11-15T07:30:13;101411.92;;;1.43;50.16
60267;BME280;46125;61.360;-149.532;2022-11-15T07:32:42;101411.05;;;1.56;49.83
60267;BME280;46125;61.360;-149.532;2022-11-15T07:35:11;101416.87;;;1.45;49.91
60267;BME280;46125;61.360;-149.532;2022-11-15T07:37:39;101419.19;;;0.42;52.56
60267;BME280;46125;61.360;-149.532;2022-11-15T07:40:09;101421.14;;;0.85;51.18
60267;BME280;46125;61.360;-149.532;2022-11-15T07:42:39;101424.26;;;0.91;51.33
60267;BME280;46125;61.360;-149.532;2022-11-15T07:45:10;101428.02;;;0.83;51.56
60267;BME280;46125;61.360;-149.532;2022-11-15T07:47:39;101429.97;;;0.45;52.97
60267;BME280;46125;61.360;-149.532;2022-11-15T07:50:08;101432.58;;;0.85;52.09
60267;BME280;46125;61.360;-149.532;2022-11-15T07:52:37;101433.52;;;0.51;53.78
60267;BME280;46125;61.360;-149.532;2022-11-15T07:55:06;101431.90;;;0.73;52.75
60267;BME280;46125;61.360;-149.532;2022-11-15T07:57:35;101438.11;;;0.97;51.83
60267;BME280;46125;61.360;-149.532;2022-11-15T08:00:07;101443.24;;;0.93;51.43
60267;BME280;46125;61.360;-149.532;2022-11-15T08:02:37;101446.24;;;-0.83;54.37
60267;BME280;46125;61.360;-149.532;2022-11-15T08:05:06;101444.66;;;0.13;53.85
60267;BME280;46125;61.360;-149.532;2022-11-15T08:07:35;101447.95;;;0.50;52.21
60267;BME280;46125;61.360;-149.532;2022-11-15T08:10:04;101448.84;;;0.14;53.15
60267;BME280;46125;61.360;-149.532;2022-11-15T08:12:34;101453.61;;;0.36;53.29
60267;BME280;46125;61.360;-149.532;2022-11-15T08:15:02;101463.80;;;-1.02;56.97
60267;BME280;46125;61.360;-149.532;2022-11-15T08:17:31;101469.88;;;0.43;53.58
60267;BME280;46125;61.360;-149.532;2022-11-15T08:20:00;101468.46;;;0.56;52.53
60267;BME280;46125;61.360;-149.532;2022-11-15T08:22:29;101474.72;;;0.66;52.07
60267;BME280;46125;61.360;-149.532;2022-11-15T08:24:58;101477.84;;;-1.07;55.08
60267;BME280;46125;61.360;-149.532;2022-11-15T08:27:26;101481.05;;;-0.67;56.00
60267;BME280;46125;61.360;-149.532;2022-11-15T08:29:55;101488.97;;;-1.46;58.60
60267;BME280;46125;61.360;-149.532;2022-11-15T08:32:24;101480.94;;;0.18;55.05
60267;BME280;46125;61.360;-149.532;2022-11-15T08:34:54;101479.94;;;0.46;53.45
60267;BME280;46125;61.360;-149.532;2022-11-15T08:37:23;101475.50;;;0.54;52.53
60267;BME280;46125;61.360;-149.532;2022-11-15T08:39:52;101473.06;;;0.70;51.98
60267;BME280;46125;61.360;-149.532;2022-11-15T08:42:21;101472.61;;;0.73;51.72
60267;BME280;46125;61.360;-149.532;2022-11-15T08:44:51;101476.20;;;0.66;51.90
60267;BME280;46125;61.360;-149.532;2022-11-15T08:47:20;101481.81;;;0.70;51.97
60267;BME280;46125;61.360;-149.532;2022-11-15T08:49:49;101486.42;;;0.79;51.85
60267;BME280;46125;61.360;-149.532;2022-11-15T08:52:17;101482.42;;;0.94;51.49
60267;BME280;46125;61.360;-149.532;2022-11-15T08:54:46;101479.11;;;0.99;51.32
60267;BME280;46125;61.360;-149.532;2022-11-15T08:57:15;101477.17;;;1.03;50.97
60267;BME280;46125;61.360;-149.532;2022-11-15T08:59:43;101481.93;;;0.96;50.78
60267;BME280;46125;61.360;-149.532;2022-11-15T09:02:13;101486.06;;;0.63;50.94
60267;BME280;46125;61.360;-149.532;2022-11-15T09:04:44;101493.12;;;0.84;51.47
60267;BME280;46125;61.360;-149.532;2022-11-15T09:07:14;101496.52;;;0.64;52.22
60267;BME280;46125;61.360;-149.532;2022-11-15T09:09:42;101500.58;;;0.97;52.11
60267;BME280;46125;61.360;-149.532;2022-11-15T09:12:11;101504.77;;;0.94;51.05
60267;BME280;46125;61.360;-149.532;2022-11-15T09:14:39;101509.01;;;0.72;51.35
60267;BME280;46125;61.360;-149.532;2022-11-15T09:17:09;101518.12;;;-0.38;53.30
60267;BME280;46125;61.360;-149.532;2022-11-15T09:19:38;101523.59;;;-0.53;54.34
60267;BME280;46125;61.360;-149.532;2022-11-15T09:22:07;101528.70;;;-0.28;53.70
60267;BME280;46125;61.360;-149.532;2022-11-15T09:24:36;101530.93;;;-0.07;53.14
60267;BME280;46125;61.360;-149.532;2022-11-15T09:27:04;101537.38;;;0.12;52.64
60267;BME280;46125;61.360;-149.532;2022-11-15T09:29:33;101538.45;;;0.40;51.95
60267;BME280;46125;61.360;-149.532;2022-11-15T09:32:02;101544.34;;;0.30;51.58
60267;BME280;46125;61.360;-149.532;2022-11-15T09:34:30;101550.00;;;0.60;51.25
60267;BME280;46125;61.360;-149.532;2022-11-15T09:36:59;101557.32;;;0.68;50.88
60267;BME280;46125;61.360;-149.532;2022-11-15T09:39:28;101561.22;;;0.54;51.00
60267;BME280;46125;61.360;-149.532;2022-11-15T09:42:10;101566.44;;;0.24;51.45
60267;BME280;46125;61.360;-149.532;2022-11-15T09:44:56;101571.51;;;0.25;51.01
60267;BME280;46125;61.360;-149.532;2022-11-15T09:47:46;101574.09;;;-0.17;53.21
60267;BME280;46125;61.360;-149.532;2022-11-15T09:50:31;101576.55;;;0.19;52.14
60267;BME280;46125;61.360;-149.532;2022-11-15T09:53:02;101578.90;;;0.35;52.48
60267;BME280;46125;61.360;-149.532;2022-11-15T09:55:38;101580.00;;;0.30;52.70
60267;BME280;46125;61.360;-149.532;2022-11-15T09:58:18;101584.01;;;0.30;53.18
60267;BME280;46125;61.360;-149.532;2022-11-15T10:00:50;101586.58;;;-0.06;53.09
60267;BME280;46125;61.360;-149.532;2022-11-15T10:03:26;101592.64;;;-0.06;54.13
60267;BME280;46125;61.360;-149.532;2022-11-15T10:05:59;101593.01;;;0.22;53.31
60267;BME280;46125;61.360;-149.532;2022-11-15T10:08:45;101595.62;;;-0.07;52.85
60267;BME280;46125;61.360;-149.532;2022-11-15T10:11:19;101601.23;;;0.17;52.82
60267;BME280;46125;61.360;-149.532;2022-11-15T10:13:50;101608.66;;;-0.04;52.43
60267;BME280;46125;61.360;-149.532;2022-11-15T10:16:35;101618.00;;;0.43;52.27
60267;BME280;46125;61.360;-149.532;2022-11-15T10:19:15;101631.92;;;0.17;52.57
60267;BME280;46125;61.360;-149.532;2022-11-15T10:21:56;101639.19;;;0.24;52.37
60267;BME280;46125;61.360;-149.532;2022-11-15T10:24:28;101646.55;;;-0.22;54.32
60267;BME280;46125;61.360;-149.532;2022-11-15T10:27:01;101651.27;;;-0.25;54.21
60267;BME280;46125;61.360;-149.532;2022-11-15T10:29:29;101650.41;;;-0.16;54.11
60267;BME280;46125;61.360;-149.532;2022-11-15T10:31:58;101652.22;;;0.01;53.85
60267;BME280;46125;61.360;-149.532;2022-11-15T10:34:27;101653.31;;;0.23;53.08
60267;BME280;46125;61.360;-149.532;2022-11-15T10:36:57;101658.76;;;-0.25;53.10
60267;BME280;46125;61.360;-149.532;2022-11-15T10:39:26;101661.51;;;-1.52;57.33
60267;BME280;46125;61.360;-149.532;2022-11-15T10:41:54;101662.43;;;-0.69;56.68
60267;BME280;46125;61.360;-149.532;2022-11-15T10:44:26;101668.01;;;-0.74;56.76
60267;BME280;46125;61.360;-149.532;2022-11-15T10:47:30;101669.87;;;-0.15;54.33
60267;BME280;46125;61.360;-149.532;2022-11-15T10:50:01;101671.25;;;0.08;53.26
60267;BME280;46125;61.360;-149.532;2022-11-15T10:52:32;101671.81;;;-1.48;56.69
60267;BME280;46125;61.360;-149.532;2022-11-15T10:55:19;101668.76;;;-0.16;54.18
60267;BME280;46125;61.360;-149.532;2022-11-15T10:57:51;101671.07;;;-0.63;56.02
60267;BME280;46125;61.360;-149.532;2022-11-15T11:00:33;101675.18;;;-0.36;56.03
60267;BME280;46125;61.360;-149.532;2022-11-15T11:03:05;101680.68;;;-1.00;57.90
60267;BME280;46125;61.360;-149.532;2022-11-15T11:05:35;101683.20;;;-1.01;57.87
60267;BME280;46125;61.360;-149.532;2022-11-15T11:08:18;101690.23;;;0.13;54.86
60267;BME280;46125;61.360;-149.532;2022-11-15T11:10:54;101689.57;;;-1.16;56.03
60267;BME280;46125;61.360;-149.532;2022-11-15T11:13:24;101689.07;;;-0.14;54.47
60267;BME280;46125;61.360;-149.532;2022-11-15T11:15:58;101689.95;;;0.36;52.77
60267;BME280;46125;61.360;-149.532;2022-11-15T11:18:33;101690.30;;;0.45;52.34
60267;BME280;46125;61.360;-149.532;2022-11-15T11:21:09;101688.94;;;-0.58;54.89
60267;BME280;46125;61.360;-149.532;2022-11-15T11:23:45;101689.38;;;0.01;53.69
60267;BME280;46125;61.360;-149.532;2022-11-15T11:26:38;101690.49;;;0.54;52.70
60267;BME280;46125;61.360;-149.532;2022-11-15T11:29:23;101692.61;;;0.24;52.26
60267;BME280;46125;61.360;-149.532;2022-11-15T11:32:01;101690.38;;;0.68;51.49
60267;BME280;46125;61.360;-149.532;2022-11-15T11:34:40;101701.28;;;0.14;51.70
60267;BME280;46125;61.360;-149.532;2022-11-15T11:37:20;101707.11;;;0.09;52.03
60267;BME280;46125;61.360;-149.532;2022-11-15T11:40:00;101713.98;;;0.11;52.06
60267;BME280;46125;61.360;-149.532;2022-11-15T11:42:40;101718.74;;;-0.00;51.78
60267;BME280;46125;61.360;-149.532;2022-11-15T11:45:22;101718.73;;;-0.09;51.70
60267;BME280;46125;61.360;-149.532;2022-11-15T11:47:59;101723.19;;;-0.73;53.69
60267;BME280;46125;61.360;-149.532;2022-11-15T11:50:32;101717.30;;;-0.98;56.06
60267;BME280;46125;61.360;-149.532;2022-11-15T11:53:05;101720.05;;;-0.38;54.81
60267;BME280;46125;61.360;-149.532;2022-11-15T11:55:41;101720.42;;;-0.11;54.99
60267;BME280;46125;61.360;-149.532;2022-11-15T11:58:16;101722.40;;;-0.54;54.90
60267;BME280;46125;61.360;-149.532;2022-11-15T12:00:49;101724.38;;;-0.19;54.73
60267;BME280;46125;61.360;-149.532;2022-11-15T12:03:24;101722.70;;;-0.50;54.93
60267;BME280;46125;61.360;-149.532;2022-11-15T12:05:56;101723.15;;;-0.02;53.72
60267;BME280;46125;61.360;-149.532;2022-11-15T12:08:35;101725.78;;;-0.19;52.73
60267;BME280;46125;61.360;-149.532;2022-11-15T12:11:12;101730.78;;;0.01;52.31
60267;BME280;46125;61.360;-149.532;2022-11-15T12:13:43;101736.66;;;0.47;52.05
60267;BME280;46125;61.360;-149.532;2022-11-15T12:16:16;101739.38;;;0.57;51.61
60267;BME280;46125;61.360;-149.532;2022-11-15T12:18:49;101738.55;;;0.57;51.18
60267;BME280;46125;61.360;-149.532;2022-11-15T12:21:24;101737.39;;;0.05;51.09
60267;BME280;46125;61.360;-149.532;2022-11-15T12:24:00;101735.85;;;0.52;51.35
60267;BME280;46125;61.360;-149.532;2022-11-15T12:26:33;101737.91;;;0.17;51.44
60267;BME280;46125;61.360;-149.532;2022-11-15T12:29:09;101733.94;;;-0.09;51.27
60267;BME280;46125;61.360;-149.532;2022-11-15T12:31:40;101732.64;;;-1.15;55.33
60267;BME280;46125;61.360;-149.532;2022-11-15T12:34:29;101735.20;;;-0.93;54.75
60267;BME280;46125;61.360;-149.532;2022-11-15T12:37:03;101739.27;;;-0.53;54.09
60267;BME280;46125;61.360;-149.532;2022-11-15T12:40:35;101740.27;;;-0.05;52.85
60267;BME280;46125;61.360;-149.532;2022-11-15T12:43:38;101741.26;;;-0.09;51.77
60267;BME280;46125;61.360;-149.532;2022-11-15T12:46:19;101747.47;;;0.42;50.90
60267;BME280;46125;61.360;-149.532;2022-11-15T12:48:52;101747.01;;;-0.11;51.37
60267;BME280;46125;61.360;-149.532;2022-11-15T12:51:23;101747.63;;;0.19;51.09
60267;BME280;46125;61.360;-149.532;2022-11-15T12:54:54;101741.68;;;-0.41;52.39
60267;BME280;46125;61.360;-149.532;2022-11-15T12:57:39;101736.30;;;0.09;52.13